Time;durP1;ratioP1;P1;durP2;ratioP2;P2;SDS_P1;SDS_P2;PMS_P1;PMS_P2;Temp;Humidity;BMP_temperature;BMP_pressure;BME280_temperature;BME280_humidity;BME280_pressure;Samples;Min_cycle;Max_cycle;Signal;HPM_P1;HPM_P2
2023/04/22 00:01:43;;;;;;;8.05;7.00;;;10.70;99.90;;;;;;5113160;27;20521;-85
2023/04/22 00:04:08;;;;;;;9.35;7.15;;;10.60;99.90;;;;;;5108345;27;20047;-84
2023/04/22 00:06:34;;;;;;;8.10;7.28;;;10.60;99.90;;;;;;5128452;27;20541;-85
2023/04/22 00:09:00;;;;;;;9.00;7.60;;;10.50;99.90;;;;;;5109914;27;20425;-85
2023/04/22 00:11:26;;;;;;;9.38;7.70;;;10.50;99.90;;;;;;5108911;27;20047;-85
2023/04/22 00:13:51;;;;;;;11.00;7.93;;;10.40;99.90;;;;;;5127930;27;20059;-85
2023/04/22 00:16:17;;;;;;;7.50;6.78;;;10.30;99.90;;;;;;5127699;27;20067;-85
2023/04/22 00:18:43;;;;;;;8.23;6.70;;;10.30;99.90;;;;;;5130072;27;20035;-85
2023/04/22 00:21:08;;;;;;;10.57;8.43;;;10.40;99.90;;;;;;5110599;27;20048;-84
2023/04/22 00:23:34;;;;;;;9.25;7.78;;;10.10;99.90;;;;;;5124555;27;20043;-84
2023/04/22 00:26:00;;;;;;;9.50;7.30;;;10.10;99.90;;;;;;5094485;27;20126;-85
2023/04/22 00:28:26;;;;;;;9.93;8.15;;;10.00;99.90;;;;;;5110062;27;20141;-84
2023/04/22 00:30:52;;;;;;;8.95;8.00;;;10.00;99.90;;;;;;5109957;27;20043;-84
2023/04/22 00:33:17;;;;;;;8.80;7.90;;;9.90;99.90;;;;;;5126717;27;20040;-84
2023/04/22 00:35:45;;;;;;;9.10;8.15;;;9.80;99.90;;;;;;5126981;27;20039;-84
2023/04/22 00:38:11;;;;;;;8.07;7.25;;;9.80;99.90;;;;;;5127001;27;20822;-84
2023/04/22 00:40:37;;;;;;;9.60;7.53;;;9.80;99.90;;;;;;5111608;27;20186;-84
2023/04/22 00:43:02;;;;;;;10.48;8.10;;;9.70;99.90;;;;;;5125947;27;20431;-84
2023/04/22 00:45:29;;;;;;;8.43;7.53;;;9.70;99.90;;;;;;5107818;27;20469;-84
2023/04/22 00:47:56;;;;;;;9.38;8.38;;;9.70;99.90;;;;;;5092320;27;20084;-85
2023/04/22 00:50:22;;;;;;;8.30;7.50;;;9.60;99.90;;;;;;5094112;27;20046;-85
2023/04/22 00:52:47;;;;;;;8.60;7.65;;;9.60;99.90;;;;;;5090511;27;20035;-85
2023/04/22 00:55:13;;;;;;;10.43;8.23;;;9.50;99.90;;;;;;5105827;27;20099;-84
2023/04/22 00:57:39;;;;;;;10.00;8.32;;;9.50;99.90;;;;;;5106973;27;20034;-85
2023/04/22 01:00:06;;;;;;;9.50;8.07;;;9.50;99.90;;;;;;5111460;27;20050;-84
2023/04/22 01:02:32;;;;;;;9.50;7.40;;;9.50;99.90;;;;;;5125889;27;20262;-85
2023/04/22 01:04:58;;;;;;;8.75;7.85;;;9.40;99.90;;;;;;5109631;27;20050;-84
2023/04/22 01:07:24;;;;;;;9.32;8.32;;;9.40;99.90;;;;;;5110870;27;20043;-85
2023/04/22 01:09:50;;;;;;;9.40;8.40;;;9.40;99.90;;;;;;5127471;27;20755;-85
2023/04/22 01:12:15;;;;;;;9.48;8.50;;;9.40;99.90;;;;;;5124595;27;20112;-85
2023/04/22 01:14:41;;;;;;;11.00;9.40;;;9.40;99.90;;;;;;5127648;27;20047;-86
2023/04/22 01:17:08;;;;;;;12.85;9.45;;;9.50;99.90;;;;;;5108777;27;20105;-85
2023/04/22 01:19:34;;;;;;;13.80;9.93;;;9.50;99.90;;;;;;5128281;27;20075;-85
2023/04/22 01:22:01;;;;;;;11.23;9.40;;;9.50;99.90;;;;;;5107467;27;20156;-85
2023/04/22 01:24:27;;;;;;;11.57;9.82;;;9.60;99.90;;;;;;5107561;27;20042;-85
2023/04/22 01:26:52;;;;;;;10.13;8.77;;;9.60;99.90;;;;;;5128113;27;20039;-85
2023/04/22 01:29:18;;;;;;;10.32;8.80;;;9.70;99.90;;;;;;5107848;27;20050;-85
2023/04/22 01:31:45;;;;;;;10.30;9.05;;;9.60;99.90;;;;;;5107465;27;20417;-85
2023/04/22 01:34:11;;;;;;;11.35;9.35;;;9.60;99.90;;;;;;5106173;27;20055;-85
2023/04/22 01:36:37;;;;;;;10.27;9.00;;;9.70;99.90;;;;;;5109454;27;20047;-85
2023/04/22 01:39:03;;;;;;;11.88;9.77;;;9.70;99.90;;;;;;5108821;28;20055;-85
2023/04/22 01:41:29;;;;;;;12.55;9.80;;;9.70;99.90;;;;;;5127339;28;20331;-85
2023/04/22 01:43:57;;;;;;;10.43;9.27;;;9.60;99.90;;;;;;5106658;28;20047;-84
2023/04/22 01:46:23;;;;;;;10.18;8.18;;;9.60;99.90;;;;;;5105893;28;20039;-85
2023/04/22 01:48:51;;;;;;;10.20;8.73;;;9.50;99.90;;;;;;5107377;28;20480;-85
2023/04/22 01:51:22;;;;;;;12.15;9.75;;;9.50;99.90;;;;;;5108590;28;20119;-85
2023/04/22 01:53:48;;;;;;;10.50;9.40;;;9.50;99.90;;;;;;5088019;28;20040;-85
2023/04/22 01:56:13;;;;;;;10.52;9.43;;;9.40;99.90;;;;;;5104253;28;20107;-84
2023/04/22 01:58:39;;;;;;;10.20;9.20;;;9.40;99.90;;;;;;5108026;28;20525;-85
2023/04/22 02:01:23;;;;;;;9.48;8.57;;;9.30;99.90;;;;;;5125825;28;20035;-85
2023/04/22 02:03:48;;;;;;;11.68;9.60;;;9.60;99.90;;;;;;5125369;27;20080;-85
2023/04/22 02:06:14;;;;;;;9.98;8.98;;;9.10;99.90;;;;;;5107577;28;20493;-86
2023/04/22 02:08:40;;;;;;;11.00;8.60;;;9.10;99.90;;;;;;5108054;28;20051;-85
2023/04/22 02:11:05;;;;;;;10.93;8.90;;;9.00;99.90;;;;;;5108196;28;20036;-85
2023/04/22 02:13:40;;;;;;;9.70;8.70;;;9.00;99.90;;;;;;5072903;28;20040;-86
2023/04/22 02:16:06;;;;;;;11.23;9.57;;;9.00;99.90;;;;;;5125684;28;20047;-86
2023/04/22 02:18:32;;;;;;;9.88;8.88;;;8.90;99.90;;;;;;5108187;28;20170;-86
2023/04/22 02:20:58;;;;;;;11.57;8.82;;;8.90;99.90;;;;;;5109570;28;20142;-85
2023/04/22 02:23:24;;;;;;;10.60;9.55;;;8.80;99.90;;;;;;5108795;28;20050;-86
2023/04/22 02:25:50;;;;;;;10.50;9.40;;;8.70;99.90;;;;;;5126007;28;20106;-86
2023/04/22 02:28:17;;;;;;;9.27;7.97;;;8.70;99.90;;;;;;5107621;27;20043;-86
2023/04/22 02:30:43;;;;;;;9.73;8.52;;;8.70;99.90;;;;;;5108711;28;20078;-86
2023/04/22 02:33:08;;;;;;;10.05;8.82;;;8.60;99.90;;;;;;5091839;28;20075;-86
2023/04/22 02:35:34;;;;;;;10.80;9.73;;;8.70;99.90;;;;;;5100551;28;20500;-85
2023/04/22 02:37:59;;;;;;;10.98;9.98;;;8.60;99.90;;;;;;5088886;28;20051;-86
2023/04/22 02:40:25;;;;;;;12.45;9.23;;;8.60;99.90;;;;;;5113524;28;20072;-86
2023/04/22 02:42:51;;;;;;;11.25;9.65;;;8.60;99.90;;;;;;5126458;27;20137;-86
2023/04/22 02:45:16;;;;;;;10.13;9.13;;;8.60;99.90;;;;;;5107186;27;20092;-86
2023/04/22 02:47:42;;;;;;;10.02;8.95;;;8.50;99.90;;;;;;5111568;27;20043;-86
2023/04/22 02:50:08;;;;;;;9.85;8.85;;;8.40;99.90;;;;;;5095552;27;20043;-86
2023/04/22 02:52:34;;;;;;;9.68;8.75;;;8.40;99.90;;;;;;5111230;27;20035;-86
2023/04/22 02:55:00;;;;;;;10.80;9.45;;;8.30;99.90;;;;;;5131525;27;20051;-86
2023/04/22 02:57:25;;;;;;;10.68;9.57;;;8.30;99.90;;;;;;5112325;27;20035;-85
2023/04/22 02:59:52;;;;;;;12.48;9.65;;;8.20;99.90;;;;;;5094492;27;20507;-86
2023/04/22 03:02:17;;;;;;;12.90;10.48;;;8.20;99.90;;;;;;5111642;27;20047;-85
2023/04/22 03:04:43;;;;;;;12.52;10.13;;;8.20;99.90;;;;;;5110007;27;20043;-86
2023/04/22 03:07:09;;;;;;;13.63;10.90;;;8.20;99.90;;;;;;5092642;27;20043;-85
2023/04/22 03:09:34;;;;;;;12.60;10.48;;;8.20;99.90;;;;;;5111798;27;20035;-86
2023/04/22 03:12:01;;;;;;;11.95;9.20;;;8.10;99.90;;;;;;5131081;27;20062;-86
2023/04/22 03:14:27;;;;;;;11.23;9.82;;;8.10;99.90;;;;;;5110095;27;20065;-86
2023/04/22 03:16:54;;;;;;;13.02;9.80;;;8.10;99.90;;;;;;5109472;27;20486;-86
2023/04/22 03:19:19;;;;;;;11.55;9.85;;;8.00;99.90;;;;;;5108570;27;20051;-86
2023/04/22 03:21:45;;;;;;;10.50;9.40;;;8.00;99.90;;;;;;5129091;27;20414;-86
2023/04/22 03:24:10;;;;;;;12.05;10.27;;;8.00;99.90;;;;;;5128435;27;20027;-86
2023/04/22 03:26:36;;;;;;;10.40;9.30;;;8.00;99.90;;;;;;5130311;27;20078;-86
2023/04/22 03:29:01;;;;;;;11.15;9.18;;;7.90;99.90;;;;;;5109684;27;20040;-86
2023/04/22 03:31:27;;;;;;;12.23;9.38;;;7.90;99.90;;;;;;5093437;27;20396;-86
2023/04/22 03:33:53;;;;;;;9.80;8.80;;;7.80;99.90;;;;;;5109043;27;20046;-86
2023/04/22 03:36:18;;;;;;;10.25;9.15;;;7.80;99.90;;;;;;5127590;27;20039;-86
2023/04/22 03:38:45;;;;;;;9.15;8.23;;;7.80;99.90;;;;;;5109853;27;20134;-86
2023/04/22 03:41:11;;;;;;;9.90;8.93;;;7.70;99.90;;;;;;5128410;27;20137;-86
2023/04/22 03:43:37;;;;;;;8.63;7.82;;;7.60;99.90;;;;;;5110926;27;20044;-86
2023/04/22 03:46:03;;;;;;;9.88;8.88;;;7.60;99.90;;;;;;5112630;27;20065;-86
2023/04/22 03:48:33;;;;;;;10.98;9.13;;;7.60;99.90;;;;;;5109925;27;20039;-86
2023/04/22 03:50:59;;;;;;;10.02;8.75;;;7.50;99.90;;;;;;5110177;27;20054;-84
2023/04/22 03:53:25;;;;;;;11.10;9.48;;;7.50;99.90;;;;;;5110487;27;20149;-85
2023/04/22 03:55:51;;;;;;;10.93;9.00;;;7.50;99.90;;;;;;5129678;27;20092;-85
2023/04/22 03:58:17;;;;;;;11.95;9.98;;;7.40;99.90;;;;;;5108639;27;20423;-85
2023/04/22 04:00:43;;;;;;;10.75;8.73;;;7.40;99.90;;;;;;5110897;27;20046;-85
2023/04/22 04:03:08;;;;;;;10.25;9.15;;;7.30;99.90;;;;;;5109347;27;20075;-85
2023/04/22 04:05:34;;;;;;;10.07;8.90;;;7.30;99.90;;;;;;5096136;28;20344;-85
2023/04/22 04:08:00;;;;;;;11.60;10.40;;;7.30;99.90;;;;;;5096063;27;20092;-85
2023/04/22 04:10:25;;;;;;;10.10;9.02;;;7.30;99.90;;;;;;5117656;27;20577;-85
2023/04/22 04:12:51;;;;;;;9.60;8.60;;;7.20;99.90;;;;;;5117919;27;20050;-85
2023/04/22 04:15:20;;;;;;;10.73;8.52;;;7.30;99.90;;;;;;5108965;27;20100;-86
2023/04/22 04:17:47;;;;;;;9.73;8.70;;;7.20;99.90;;;;;;5128742;27;20045;-85
2023/04/22 04:20:13;;;;;;;8.80;7.95;;;7.20;99.90;;;;;;5101329;27;20047;-85
2023/04/22 04:22:39;;;;;;;10.13;8.98;;;7.20;99.90;;;;;;5128969;27;20488;-85
2023/04/22 04:25:05;;;;;;;10.93;9.73;;;7.10;99.90;;;;;;5126765;27;20149;-86
2023/04/22 04:27:31;;;;;;;10.75;9.60;;;7.10;99.90;;;;;;5128595;27;20047;-85
2023/04/22 04:29:57;;;;;;;15.95;11.40;;;7.20;99.90;;;;;;5127312;27;20051;-86
2023/04/22 04:32:23;;;;;;;15.27;11.15;;;7.20;99.90;;;;;;5109054;27;20223;-86
2023/04/22 04:34:49;;;;;;;14.32;11.65;;;7.30;99.90;;;;;;5105596;27;20112;-86
2023/04/22 04:37:15;;;;;;;14.23;11.45;;;7.30;99.90;;;;;;5105541;28;20514;-86
2023/04/22 04:39:42;;;;;;;14.75;12.40;;;7.30;99.90;;;;;;5094148;28;20040;-86
2023/04/22 04:42:08;;;;;;;14.77;12.30;;;7.40;99.90;;;;;;5097141;28;20048;-86
2023/04/22 04:44:34;;;;;;;14.05;12.65;;;7.40;99.90;;;;;;5105213;28;20048;-86
2023/04/22 04:47:00;;;;;;;17.88;13.48;;;7.40;99.90;;;;;;5105453;28;20127;-86
2023/04/22 04:49:29;;;;;;;16.30;12.35;;;7.50;99.90;;;;;;5105601;28;20074;-86
2023/04/22 04:51:56;;;;;;;14.85;12.45;;;7.50;99.90;;;;;;5105937;28;20375;-86
2023/04/22 04:54:23;;;;;;;15.13;12.32;;;7.70;99.90;;;;;;5106983;28;20035;-86
2023/04/22 04:56:48;;;;;;;15.88;12.60;;;7.60;99.90;;;;;;5107956;28;20378;-85
2023/04/22 04:59:14;;;;;;;15.45;12.57;;;7.60;99.90;;;;;;5106238;28;20051;-86
2023/04/22 05:01:40;;;;;;;13.65;11.77;;;7.60;99.90;;;;;;5108817;28;20366;-86
2023/04/22 05:04:05;;;;;;;13.70;12.30;;;7.70;99.90;;;;;;5101808;28;20051;-85
2023/04/22 05:06:34;;;;;;;15.70;12.95;;;8.00;99.90;;;;;;5107351;28;20047;-86
2023/04/22 05:08:59;;;;;;;14.98;12.75;;;7.70;99.90;;;;;;5105087;28;20035;-86
2023/04/22 05:11:25;;;;;;;14.65;12.18;;;7.80;99.90;;;;;;5107922;28;20050;-86
2023/04/22 05:13:50;;;;;;;14.60;12.70;;;7.80;99.90;;;;;;5104774;28;20044;-86
2023/04/22 05:16:16;;;;;;;15.32;12.40;;;7.90;99.90;;;;;;5106338;28;20055;-86
2023/04/22 05:18:41;;;;;;;15.40;12.60;;;7.90;99.90;;;;;;5105452;28;20039;-86
2023/04/22 05:21:07;;;;;;;15.15;12.77;;;8.00;99.90;;;;;;5104877;28;20031;-86
2023/04/22 05:23:33;;;;;;;12.73;11.38;;;8.10;99.90;;;;;;5104593;28;20077;-86
2023/04/22 05:25:58;;;;;;;16.42;13.50;;;8.10;99.90;;;;;;5102670;28;20052;-87
2023/04/22 05:28:24;;;;;;;15.45;12.57;;;8.20;99.90;;;;;;5085312;28;20055;-86
2023/04/22 05:30:50;;;;;;;17.50;14.18;;;8.20;99.90;;;;;;5102113;28;20126;-85
2023/04/22 05:33:15;;;;;;;15.63;12.68;;;8.30;99.90;;;;;;5106497;28;20065;-85
2023/04/22 05:35:41;;;;;;;15.90;13.10;;;8.30;99.90;;;;;;5105085;28;20036;-86
2023/04/22 05:38:07;;;;;;;15.15;12.13;;;8.40;99.90;;;;;;5104166;28;20051;-85
2023/04/22 05:40:32;;;;;;;13.38;11.98;;;8.50;99.90;;;;;;5105914;28;20209;-86
2023/04/22 05:42:58;;;;;;;15.32;12.30;;;8.70;99.90;;;;;;5098175;28;20119;-86
2023/04/22 05:45:23;;;;;;;13.75;12.30;;;8.40;99.90;;;;;;5091464;28;20075;-87
2023/04/22 05:47:49;;;;;;;17.70;13.73;;;8.60;99.90;;;;;;5080195;28;20043;-86
2023/04/22 05:50:15;;;;;;;16.13;13.10;;;8.70;99.90;;;;;;5087523;28;20079;-86
2023/04/22 05:52:40;;;;;;;15.68;13.00;;;8.80;99.90;;;;;;5101337;28;20506;-87
2023/04/22 05:55:06;;;;;;;15.27;12.73;;;8.90;99.90;;;;;;5087876;28;20056;-86
2023/04/22 05:57:32;;;;;;;16.40;13.05;;;8.90;99.90;;;;;;5088231;28;20048;-86
2023/04/22 05:59:59;;;;;;;16.70;13.52;;;9.00;99.90;;;;;;5105402;28;20059;-86
2023/04/22 06:02:28;;;;;;;17.73;14.13;;;9.10;99.90;;;;;;5108132;28;20130;-84
2023/04/22 06:04:53;;;;;;;18.95;14.55;;;9.20;99.90;;;;;;5107142;28;20043;-86
2023/04/22 06:07:19;;;;;;;18.38;15.15;;;9.30;99.90;;;;;;5105985;28;20551;-86
2023/04/22 06:09:44;;;;;;;19.45;16.42;;;9.40;99.90;;;;;;5072251;28;20138;-85
2023/04/22 06:12:10;;;;;;;20.77;15.75;;;9.40;99.90;;;;;;5085837;28;20047;-86
2023/04/22 06:14:35;;;;;;;21.27;15.57;;;9.50;99.90;;;;;;5106272;28;20044;-85
2023/04/22 06:17:01;;;;;;;18.88;15.98;;;9.60;99.90;;;;;;5107571;28;20122;-84
2023/04/22 06:19:27;;;;;;;21.05;16.98;;;9.70;99.90;;;;;;5107840;28;20083;-85
2023/04/22 06:21:52;;;;;;;20.63;16.35;;;9.80;99.90;;;;;;5101010;28;20820;-86
2023/04/22 06:24:18;;;;;;;19.50;16.73;;;9.80;99.90;;;;;;5100993;28;20051;-87
2023/04/22 06:26:44;;;;;;;18.27;15.00;;;9.90;99.90;;;;;;5098961;28;20086;-85
2023/04/22 06:29:09;;;;;;;20.02;16.55;;;10.00;99.90;;;;;;5091069;28;20044;-86
2023/04/22 06:31:35;;;;;;;19.65;16.17;;;10.00;99.90;;;;;;5089387;28;20121;-86
2023/04/22 06:34:01;;;;;;;19.63;16.75;;;10.10;99.90;;;;;;5105868;28;20403;-86
2023/04/22 06:36:36;;;;;;;19.27;16.38;;;10.10;99.90;;;;;;5110348;27;20390;-86
2023/04/22 06:39:04;;;;;;;21.17;17.23;;;10.20;99.90;;;;;;5095540;27;20311;-86
2023/04/22 06:41:30;;;;;;;19.27;15.90;;;10.30;99.90;;;;;;5096662;27;20076;-85
2023/04/22 06:43:55;;;;;;;17.92;16.02;;;10.40;99.90;;;;;;5131504;27;20043;-86
2023/04/22 06:46:21;;;;;;;17.75;15.27;;;10.60;99.90;;;;;;5113360;27;20074;-87
2023/04/22 06:48:49;;;;;;;20.20;16.60;;;10.50;99.90;;;;;;5130164;27;20126;-88
2023/04/22 06:51:15;;;;;;;21.02;16.27;;;10.60;99.90;;;;;;5112993;27;20053;-87
2023/04/22 06:53:43;;;;;;;20.27;17.02;;;10.70;99.90;;;;;;5130072;27;20047;-87
2023/04/22 06:56:08;;;;;;;19.73;16.05;;;10.80;99.90;;;;;;5130956;27;20062;-88
2023/04/22 06:58:34;;;;;;;18.48;15.77;;;10.80;99.90;;;;;;5113268;27;20350;-87
2023/04/22 07:01:00;;;;;;;17.88;15.98;;;10.90;99.90;;;;;;5112367;27;20042;-86
2023/04/22 07:03:26;;;;;;;18.23;15.55;;;11.10;99.90;;;;;;5130920;27;20072;-86
2023/04/22 07:05:51;;;;;;;17.85;15.95;;;11.10;99.90;;;;;;5131667;27;20040;-85
2023/04/22 07:08:18;;;;;;;16.65;14.93;;;11.20;99.90;;;;;;5111862;27;20051;-87
2023/04/22 07:10:44;;;;;;;17.70;15.60;;;11.30;99.90;;;;;;5113001;27;20054;-86
2023/04/22 07:13:09;;;;;;;16.73;14.95;;;11.40;99.90;;;;;;5108993;27;20391;-85
2023/04/22 07:15:38;;;;;;;16.13;14.35;;;11.40;99.90;;;;;;5110202;27;20050;-86
2023/04/22 07:18:03;;;;;;;18.00;14.73;;;11.50;99.90;;;;;;5108775;27;20093;-85
2023/04/22 07:20:29;;;;;;;22.55;15.65;;;11.60;99.90;;;;;;5117626;27;20079;-87
2023/04/22 07:22:54;;;;;;;16.23;14.52;;;11.70;99.90;;;;;;5092295;28;20070;-85
2023/04/22 07:25:20;;;;;;;16.65;13.52;;;11.80;99.90;;;;;;5127844;27;20105;-85
2023/04/22 07:27:48;;;;;;;15.85;14.15;;;12.00;99.90;;;;;;5129978;27;20126;-85
2023/04/22 07:30:14;;;;;;;15.43;13.80;;;12.00;99.90;;;;;;5111970;27;20122;-87
2023/04/22 07:32:40;;;;;;;16.75;13.23;;;12.20;99.90;;;;;;5130624;27;20079;-86
2023/04/22 07:35:06;;;;;;;14.20;12.75;;;12.30;99.90;;;;;;5093161;27;20040;-86
2023/04/22 07:37:34;;;;;;;14.68;13.20;;;12.40;99.90;;;;;;5102067;27;20047;-85
2023/04/22 07:40:00;;;;;;;15.32;13.15;;;12.70;99.90;;;;;;5112222;27;20043;-85
2023/04/22 07:42:25;;;;;;;13.98;12.50;;;12.50;99.90;;;;;;5130514;27;20039;-86
2023/04/22 07:44:51;;;;;;;15.00;12.20;;;12.60;99.90;;;;;;5112087;27;20043;-86
2023/04/22 07:47:16;;;;;;;14.57;12.18;;;12.70;99.90;;;;;;5130408;27;20051;-86
2023/04/22 07:49:49;;;;;;;13.57;12.20;;;12.80;99.90;;;;;;5094904;27;20047;-86
2023/04/22 07:52:15;;;;;;;14.00;12.60;;;12.90;99.90;;;;;;5101627;28;20524;-86
2023/04/22 07:54:40;;;;;;;14.15;12.65;;;13.00;99.90;;;;;;5090209;28;20040;-86
2023/04/22 07:57:06;;;;;;;13.35;12.05;;;13.20;99.90;;;;;;5090293;28;20079;-86
2023/04/22 07:59:32;;;;;;;13.57;12.15;;;13.60;99.90;;;;;;5108450;28;20070;-86
2023/04/22 08:01:57;;;;;;;13.02;11.65;;;13.40;99.90;;;;;;5108593;28;20081;-86
2023/04/22 08:04:23;;;;;;;13.02;11.65;;;13.60;99.90;;;;;;5089815;28;20539;-86
2023/04/22 08:06:50;;;;;;;12.40;11.10;;;13.70;99.90;;;;;;5094875;27;20031;-86
2023/04/22 08:09:16;;;;;;;12.52;11.25;;;13.90;99.90;;;;;;5121124;27;20083;-85
2023/04/22 08:11:42;;;;;;;12.70;11.50;;;14.00;99.90;;;;;;5112300;27;20086;-85
2023/04/22 08:14:07;;;;;;;12.75;11.20;;;14.20;99.90;;;;;;5111089;27;20032;-85
2023/04/22 08:16:36;;;;;;;12.35;11.05;;;14.40;99.90;;;;;;5130019;27;20043;-85
2023/04/22 08:19:04;;;;;;;11.90;10.70;;;14.60;99.90;;;;;;5111576;27;20050;-85
2023/04/22 08:21:30;;;;;;;11.43;10.32;;;14.90;99.90;;;;;;5111100;27;20443;-86
2023/04/22 08:23:55;;;;;;;10.85;9.85;;;15.40;99.90;;;;;;5110044;27;20054;-85
2023/04/22 08:26:21;;;;;;;11.20;10.20;;;15.30;99.90;;;;;;5111228;27;20139;-84
2023/04/22 08:28:47;;;;;;;11.35;10.25;;;15.30;99.90;;;;;;5111143;27;20437;-86
2023/04/22 08:31:13;;;;;;;11.02;9.93;;;15.40;99.90;;;;;;5111103;27;20101;-85
2023/04/22 08:33:42;;;;;;;10.13;9.23;;;15.60;99.90;;;;;;5111314;27;20100;-85
2023/04/22 08:36:09;;;;;;;11.07;9.90;;;15.70;99.90;;;;;;5111727;27;20035;-86
2023/04/22 08:38:35;;;;;;;10.35;9.35;;;15.90;99.90;;;;;;5110827;27;20062;-85
2023/04/22 08:41:06;;;;;;;14.13;9.68;;;15.90;99.90;;;;;;5110116;27;20044;-85
2023/04/22 08:43:33;;;;;;;9.63;8.73;;;16.00;99.90;;;;;;5110446;28;20438;-85
2023/04/22 08:45:59;;;;;;;10.20;9.25;;;16.00;99.90;;;;;;5094208;27;20047;-85
2023/04/22 08:48:25;;;;;;;9.85;8.95;;;15.90;99.90;;;;;;5111242;27;20047;-85
2023/04/22 08:50:52;;;;;;;11.30;10.00;;;16.10;99.90;;;;;;5093305;27;20055;-85
2023/04/22 08:53:19;;;;;;;10.50;9.48;;;16.20;99.90;;;;;;5111069;27;20063;-85
2023/04/22 08:55:45;;;;;;;10.48;9.23;;;16.20;99.90;;;;;;5093084;27;20963;-85
2023/04/22 08:58:11;;;;;;;10.00;9.00;;;16.30;99.90;;;;;;5092976;27;20075;-85
2023/04/22 09:00:38;;;;;;;9.88;8.82;;;16.30;99.90;;;;;;5111010;27;20090;-85
2023/04/22 09:03:05;;;;;;;9.88;8.93;;;16.40;99.90;;;;;;5129680;27;20406;-85
2023/04/22 09:05:36;;;;;;;9.63;8.50;;;16.50;99.90;;;;;;5111343;27;20428;-85
2023/04/22 09:08:02;;;;;;;9.80;8.80;;;16.60;99.90;;;;;;5093073;27;20047;-85
2023/04/22 09:10:29;;;;;;;9.73;8.73;;;16.70;99.90;;;;;;5111182;27;20051;-85
2023/04/22 09:12:57;;;;;;;9.57;8.10;;;16.90;99.90;;;;;;5128375;27;20051;-85
2023/04/22 09:15:27;;;;;;;9.45;8.43;;;16.90;99.90;;;;;;5101245;28;20551;-85
2023/04/22 09:17:54;;;;;;;9.18;8.13;;;17.00;99.90;;;;;;5090274;28;20083;-85
2023/04/22 09:20:25;;;;;;;8.65;7.85;;;17.10;99.90;;;;;;5090480;28;20048;-85
2023/04/22 09:22:51;;;;;;;8.80;8.00;;;17.20;99.90;;;;;;5108124;28;20362;-85
2023/04/22 09:25:26;;;;;;;9.10;8.30;;;17.30;99.90;;;;;;5089454;28;20461;-83
2023/04/22 09:27:56;;;;;;;10.10;7.63;;;17.40;99.90;;;;;;5072769;28;20063;-86
2023/04/22 09:30:29;;;;;;;8.73;7.93;;;17.60;99.90;;;;;;5106515;27;20107;-85
2023/04/22 09:32:59;;;;;;;9.60;8.70;;;17.70;99.90;;;;;;5110134;27;20508;-86
2023/04/22 09:35:28;;;;;;;8.40;7.63;;;17.80;99.90;;;;;;5128122;27;20495;-85
2023/04/22 09:37:54;;;;;;;8.18;7.43;;;17.70;99.90;;;;;;5128507;27;20175;-85
2023/04/22 09:40:20;;;;;;;8.30;7.50;;;18.00;99.90;;;;;;5110128;27;20135;-85
2023/04/22 09:42:50;;;;;;;7.30;6.60;;;18.10;99.90;;;;;;5128264;27;20039;-85
2023/04/22 09:45:32;;;;;;;7.75;6.95;;;18.20;99.90;;;;;;5109847;28;20072;-85
2023/04/22 09:48:14;;;;;;;8.20;7.40;;;18.30;99.90;;;;;;5109714;28;20058;-85
2023/04/22 09:50:44;;;;;;;7.70;6.78;;;18.40;99.90;;;;;;5108344;28;20939;-85
2023/04/22 09:53:11;;;;;;;8.15;7.30;;;18.50;99.90;;;;;;5110264;28;20066;-85
2023/04/22 09:55:49;;;;;;;7.65;6.95;;;18.50;99.90;;;;;;5112395;27;20039;-85
2023/04/22 09:58:17;;;;;;;8.25;7.45;;;18.70;99.90;;;;;;5132413;27;20055;-85
2023/04/22 10:00:50;;;;;;;7.75;6.95;;;18.80;99.90;;;;;;5132848;27;20180;-85
2023/04/22 10:03:17;;;;;;;7.65;6.95;;;19.00;99.90;;;;;;5113943;27;20039;-85
2023/04/22 10:05:44;;;;;;;9.23;7.32;;;19.20;99.90;;;;;;5103567;27;20354;-85
2023/04/22 10:08:11;;;;;;;7.97;7.05;;;19.20;99.90;;;;;;5095727;28;20051;-85
2023/04/22 10:10:37;;;;;;;8.60;7.85;;;19.40;99.90;;;;;;5093554;28;20047;-86
2023/04/22 10:13:12;;;;;;;8.02;7.32;;;19.40;99.90;;;;;;5093633;28;20134;-85
2023/04/22 10:15:48;;;;;;;6.38;5.82;;;19.50;99.90;;;;;;5076457;28;20059;-84
2023/04/22 10:18:19;;;;;;;6.43;5.75;;;19.50;99.90;;;;;;5092689;28;20393;-83
2023/04/22 10:20:46;;;;;;;6.20;5.60;;;19.60;99.90;;;;;;5128436;27;20050;-82
2023/04/22 10:23:21;;;;;;;6.43;5.82;;;19.70;99.90;;;;;;5110871;27;20096;-83
2023/04/22 10:25:48;;;;;;;5.70;5.10;;;19.70;99.90;;;;;;5132604;27;20389;-83
2023/04/22 10:28:15;;;;;;;7.05;6.45;;;19.70;99.90;;;;;;5113322;27;20129;-83
2023/04/22 10:30:41;;;;;;;7.07;5.90;;;19.70;99.90;;;;;;5113844;27;20043;-81
2023/04/22 10:33:30;;;;;;;6.72;5.45;;;19.80;99.90;;;;;;5132899;27;20046;-82
2023/04/22 10:36:17;;;;;;;6.47;5.90;;;19.80;99.90;;;;;;5109815;27;20051;-82
2023/04/22 10:38:51;;;;;;;6.30;5.75;;;19.80;99.90;;;;;;5128006;27;20059;-81
2023/04/22 10:41:22;;;;;;;6.18;5.57;;;19.90;99.90;;;;;;5129007;27;20044;-81
2023/04/22 10:43:54;;;;;;;5.75;5.25;;;19.90;99.90;;;;;;5131319;27;20085;-83
2023/04/22 10:46:41;;;;;;;;;;;19.90;99.90;;;;;;5110814;27;20630;-82
2023/04/22 10:49:12;;;;;;;5.53;5.03;;;20.00;99.90;;;;;;5131108;27;20329;-82
2023/04/22 10:51:43;;;;;;;7.13;6.10;;;19.90;99.90;;;;;;5130069;27;20091;-83
2023/04/22 10:54:27;;;;;;;6.88;6.25;;;20.00;99.90;;;;;;5111747;27;20054;-82
2023/04/22 10:57:04;;;;;;;6.45;5.85;;;19.90;99.90;;;;;;5113144;27;20437;-83
2023/04/22 10:59:31;;;;;;;6.97;6.07;;;20.00;99.90;;;;;;5113155;27;20047;-83
2023/04/22 11:02:04;;;;;;;6.47;5.63;;;20.00;99.90;;;;;;5113361;27;20039;-83
2023/04/22 11:04:29;;;;;;;6.53;5.93;;;20.10;99.90;;;;;;5111811;27;20043;-82
2023/04/22 11:07:19;;;;;;;6.63;6.00;;;20.10;99.90;;;;;;5112351;27;20066;-83
2023/04/22 11:09:50;;;;;;;8.05;5.78;;;20.30;99.90;;;;;;5129767;27;20043;-83
2023/04/22 11:12:34;;;;;;;6.03;5.43;;;20.40;99.90;;;;;;5119524;27;20112;-82
2023/04/22 11:15:16;;;;;;;6.78;6.03;;;20.50;99.90;;;;;;5091153;28;20065;-82
2023/04/22 11:17:44;;;;;;;6.07;5.47;;;20.50;99.90;;;;;;5126321;27;20043;-81
2023/04/22 11:20:17;;;;;;;6.57;5.82;;;20.60;99.90;;;;;;5131312;27;20035;-82
2023/04/22 11:22:50;;;;;;;7.22;6.18;;;20.80;99.90;;;;;;5111021;27;20054;-82
2023/04/22 11:25:16;;;;;;;7.40;5.95;;;20.50;99.90;;;;;;5131451;27;20051;-81
2023/04/22 11:27:42;;;;;;;6.70;5.85;;;20.50;99.90;;;;;;5130215;27;20390;-81
2023/04/22 11:30:13;;;;;;;6.47;5.90;;;20.60;99.90;;;;;;5111057;27;20493;-82
2023/04/22 11:32:47;;;;;;;6.43;5.82;;;20.60;99.90;;;;;;5128250;27;20046;-82
2023/04/22 11:35:23;;;;;;;7.88;7.07;;;20.60;99.30;;;;;;5129496;27;20064;-82
2023/04/22 11:37:50;;;;;;;9.07;6.75;;;20.60;99.10;;;;;;5109364;27;20067;-81
2023/04/22 11:40:18;;;;;;;8.00;7.30;;;20.60;99.90;;;;;;5110074;27;20043;-81
2023/04/22 11:42:45;;;;;;;6.85;6.25;;;20.70;99.20;;;;;;5106659;27;20114;-82
2023/04/22 11:45:12;;;;;;;7.70;6.80;;;20.70;99.90;;;;;;5123934;27;20086;-83
2023/04/22 11:47:38;;;;;;;6.82;5.95;;;20.90;99.30;;;;;;5104560;27;20047;-82
2023/04/22 11:50:08;;;;;;;7.50;6.47;;;20.90;99.20;;;;;;5129323;27;20043;-82
2023/04/22 11:52:46;;;;;;;7.70;6.85;;;20.90;99.60;;;;;;5128507;27;20507;-82
2023/04/22 11:55:32;;;;;;;7.00;6.25;;;20.80;98.20;;;;;;5129886;27;20043;-83
2023/04/22 11:58:00;;;;;;;6.93;6.32;;;20.70;98.90;;;;;;5113078;27;20122;-83
2023/04/22 12:00:32;;;;;;;8.40;7.60;;;20.70;99.80;;;;;;5091313;28;20097;-85
2023/04/22 12:03:01;;;;;;;7.60;7.00;;;20.80;98.60;;;;;;5121086;27;20065;-84
2023/04/22 12:05:37;;;;;;;7.32;6.63;;;20.80;99.90;;;;;;5112171;27;20168;-86
2023/04/22 12:08:09;;;;;;;7.88;7.10;;;20.90;98.40;;;;;;5093241;27;20130;-84
2023/04/22 12:10:48;;;;;;;7.80;6.43;;;20.90;98.00;;;;;;5111277;27;20051;-83
2023/04/22 12:13:30;;;;;;;7.45;6.75;;;20.90;98.30;;;;;;5129337;27;20050;-83
2023/04/22 12:16:05;;;;;;;7.10;6.40;;;20.90;97.60;;;;;;5129067;27;20044;-83
2023/04/22 12:18:31;;;;;;;8.48;7.30;;;20.90;96.40;;;;;;5128466;27;20050;-84
2023/04/22 12:21:11;;;;;;;12.70;7.35;;;21.00;99.50;;;;;;5111736;27;20043;-83
2023/04/22 12:23:45;;;;;;;8.20;7.50;;;21.00;97.10;;;;;;5103622;28;20047;-84
2023/04/22 12:26:12;;;;;;;7.97;6.85;;;20.90;97.60;;;;;;5110267;28;20515;-84
2023/04/22 12:28:39;;;;;;;7.15;6.50;;;20.90;97.90;;;;;;5124654;27;20070;-84
2023/04/22 12:31:09;;;;;;;8.00;7.25;;;21.00;98.80;;;;;;5111039;27;20485;-84
2023/04/22 12:33:37;;;;;;;6.75;6.13;;;21.20;98.50;;;;;;5129183;27;20039;-81
2023/04/22 12:36:04;;;;;;;7.70;6.55;;;21.20;96.60;;;;;;5110424;27;20074;-81
2023/04/22 12:38:30;;;;;;;9.25;6.13;;;21.10;97.00;;;;;;5128128;27;20095;-82
2023/04/22 12:40:56;;;;;;;6.55;5.88;;;21.10;95.90;;;;;;5110551;27;20046;-81
2023/04/22 12:43:21;;;;;;;8.02;6.57;;;21.00;95.90;;;;;;5110330;27;20047;-81
2023/04/22 12:45:47;;;;;;;7.78;6.38;;;21.10;96.50;;;;;;5128530;27;20043;-82